Archival Weather

Republic

Farmingdale, New York (KFRG)

Report from: Wednesday, February 7, 2024 4:53 PM EST
Current time: Friday, June 14, 2024 8:23 AM EDT

Current weather – Weather history – Daily summaries
Weather forecast

Temperature7.2°C (45.0°F)
Wind chill5.9°C (42.6°F)
Dew point-5.0°C (23.0°F)
Winds 4 kts (2.1 m/s, 4.6 mph) North-Northwest (340°)
Visibility10 mi. (16.1 km)
Clouds Sky clear
Altimeter30.26 in.Hg (1025 mB)
Relative humidity42 %
Density altitude-1,256 ft. (-383 m)
Sea-level pressure102.5 kPa (1025 mB, 30.26 in.Hg)
Remarks Fully automated report
Automated weather observing station without precipitation discriminator
Flight conditions Visual Meteorological Conditions
Raw dataKFRG 072153Z AUTO 34004KT 10SM CLR 07/M05 A3026 RMK AO1 SLP247 T00721050
An error has occurred. This application may no longer respond until reloaded. Reload 🗙